createdAt,value
2023-03-30T05:10:56.706Z,22.60
2023-03-30T05:13:27.423Z,25.60
2023-03-30T05:15:58.930Z,28.20
2023-03-30T05:18:29.639Z,27.70
2023-03-30T05:21:07.519Z,29.00
2023-03-30T05:23:38.223Z,27.30
2023-03-30T05:26:09.684Z,31.80
2023-03-30T05:28:40.401Z,31.70
2023-03-30T05:31:11.185Z,36.90
2023-03-30T05:33:43.834Z,34.70
2023-03-30T05:36:15.246Z,29.70
2023-03-30T05:38:46.407Z,29.50
2023-03-30T05:43:46.140Z,30.20
2023-03-30T05:46:28.956Z,30.00
2023-03-30T05:49:00.943Z,31.90
2023-03-30T05:51:31.768Z,29.40
2023-03-30T05:54:02.630Z,27.10
2023-03-30T05:56:33.411Z,29.20
2023-03-30T05:59:04.139Z,29.80
2023-03-30T06:01:35.271Z,33.10
2023-03-30T06:04:07.594Z,32.30
2023-03-30T06:06:38.430Z,28.60
2023-03-30T06:09:09.353Z,25.10
2023-03-30T06:11:40.509Z,24.20
2023-03-30T06:16:54.206Z,21.10
2023-03-30T06:19:25.557Z,22.20
2023-03-30T06:21:56.579Z,20.80
2023-03-30T06:24:27.197Z,21.50
2023-03-30T06:26:59.040Z,20.70
2023-03-30T06:29:29.831Z,20.40
2023-03-30T06:32:00.684Z,23.40
2023-03-30T06:34:31.507Z,23.90
2023-03-30T06:37:02.278Z,21.90
2023-03-30T06:39:33.044Z,23.20
2023-03-30T06:42:03.905Z,23.20
2023-03-30T06:47:04.687Z,24.20
2023-03-30T06:49:34.260Z,23.90
2023-03-30T06:52:08.162Z,22.20
2023-03-30T06:54:39.523Z,22.70
2023-03-30T06:57:10.190Z,19.50
2023-03-30T06:59:41.097Z,20.50
2023-03-30T07:02:15.453Z,22.30
2023-03-30T07:04:46.382Z,20.00
2023-03-30T07:07:17.102Z,19.00
2023-03-30T07:09:47.727Z,21.70
2023-03-30T07:12:18.415Z,21.90
2023-03-30T07:14:49.046Z,18.70
2023-03-30T07:17:20.074Z,18.10
2023-03-30T07:22:19.768Z,19.00
2023-03-30T07:24:50.368Z,19.40
2023-03-30T07:27:21.812Z,19.00
2023-03-30T07:29:54.461Z,15.70
2023-03-30T07:34:54.412Z,20.00
2023-03-30T07:37:25.124Z,20.80
2023-03-30T07:39:55.993Z,16.40
2023-03-30T07:42:26.757Z,18.80
2023-03-30T07:44:57.402Z,19.00
2023-03-30T07:47:28.114Z,19.60
2023-03-30T07:49:58.761Z,19.40
2023-03-30T07:52:29.549Z,19.80
2023-03-30T07:55:00.330Z,20.50
2023-03-30T07:57:31.012Z,25.80
2023-03-30T08:00:01.724Z,18.60
2023-03-30T08:02:32.517Z,16.60
2023-03-30T08:05:03.309Z,17.30
2023-03-30T08:07:34.272Z,17.90
2023-03-30T08:12:34.154Z,16.30
2023-03-30T08:15:07.416Z,18.10
2023-03-30T08:17:38.193Z,21.80
2023-03-30T08:20:12.402Z,16.60
2023-03-30T08:22:43.162Z,16.90
2023-03-30T08:25:13.826Z,15.30
2023-03-30T08:27:44.507Z,17.50
2023-03-30T08:30:17.286Z,18.00
2023-03-30T08:32:47.931Z,15.00
2023-03-30T08:35:19.012Z,17.60
2023-03-30T08:40:19.928Z,18.70
2023-03-30T08:43:07.139Z,16.50
2023-03-30T08:45:42.453Z,13.60
2023-03-30T08:48:19.251Z,15.30
2023-03-30T08:50:57.518Z,13.20
2023-03-30T08:53:32.356Z,13.20
2023-03-30T08:56:10.524Z,19.30
2023-03-30T08:58:50.830Z,14.40
2023-03-30T09:01:27.961Z,16.00
2023-03-30T09:04:11.115Z,15.20
2023-03-30T09:06:49.818Z,15.50
2023-03-30T09:09:25.009Z,15.60
2023-03-30T09:12:02.928Z,14.90
2023-03-30T09:14:39.507Z,16.60
2023-03-30T09:17:14.098Z,14.80
2023-03-30T09:19:53.949Z,16.90
2023-03-30T09:22:29.845Z,15.10
2023-03-30T09:25:00.488Z,12.50
2023-03-30T09:27:40.422Z,14.20
2023-03-30T09:30:20.359Z,15.80
2023-03-30T09:32:59.002Z,15.20
2023-03-30T09:35:38.263Z,16.00
2023-03-30T09:38:12.853Z,15.30
2023-03-30T09:40:58.914Z,15.80
2023-03-30T09:43:36.388Z,13.20
2023-03-30T09:46:08.618Z,11.00
2023-03-30T09:48:44.251Z,16.00
2023-03-30T09:51:24.340Z,12.10
2023-03-30T09:54:02.827Z,12.10
2023-03-30T09:56:42.169Z,14.10
2023-03-30T09:59:29.413Z,11.30
2023-03-30T10:02:20.380Z,15.40
2023-03-30T10:05:00.783Z,13.70
2023-03-30T10:07:34.634Z,10.50
2023-03-30T10:10:26.588Z,17.00
2023-03-30T10:13:02.603Z,13.70
2023-03-30T10:15:36.514Z,13.10
2023-03-30T10:18:27.227Z,18.00
2023-03-30T10:21:04.572Z,13.00
2023-03-30T10:23:38.310Z,13.60
2023-03-30T10:26:14.072Z,14.90
2023-03-30T10:28:53.347Z,13.70
2023-03-30T10:31:27.734Z,14.00
2023-03-30T10:34:05.681Z,16.30
2023-03-30T10:36:40.413Z,15.30
2023-03-30T10:39:17.095Z,13.10
2023-03-30T10:41:49.574Z,14.00
2023-03-30T10:44:30.290Z,10.90
2023-03-30T10:47:16.945Z,14.60
2023-03-30T10:49:56.198Z,15.90
2023-03-30T10:52:39.156Z,12.50
2023-03-30T10:55:21.552Z,15.70
2023-03-30T10:57:59.689Z,15.40
2023-03-30T11:00:54.625Z,15.80
2023-03-30T11:03:44.577Z,18.00
2023-03-30T11:06:21.437Z,16.20
2023-03-30T11:08:54.646Z,14.50
2023-03-30T11:11:31.773Z,21.50
2023-03-30T11:14:07.711Z,16.30
2023-03-30T11:16:47.389Z,15.60
2023-03-30T11:19:21.612Z,14.80
2023-03-30T11:21:59.847Z,18.90
2023-03-30T11:24:30.852Z,18.30
2023-03-30T11:27:09.508Z,20.40
2023-03-30T11:29:46.812Z,15.00
2023-03-30T11:32:25.672Z,19.30
2023-03-30T11:35:06.175Z,13.10
2023-03-30T11:37:42.418Z,11.10
2023-03-30T11:40:20.228Z,14.80
2023-03-30T11:42:51.356Z,17.30
2023-03-30T11:45:41.273Z,14.00
2023-03-30T11:48:33.465Z,16.40
2023-03-30T11:51:16.109Z,9.90
2023-03-30T11:53:58.141Z,13.30
2023-03-30T11:56:39.881Z,10.90
2023-03-30T11:59:50.817Z,14.30
2023-03-30T12:02:31.948Z,13.50
2023-03-30T12:05:11.209Z,14.00
2023-03-30T12:07:53.265Z,24.00
2023-03-30T12:10:35.212Z,19.10
2023-03-30T12:13:09.009Z,15.10
2023-03-30T12:15:50.497Z,17.00
2023-03-30T12:18:33.069Z,16.80
2023-03-30T12:21:19.090Z,11.90
2023-03-30T12:23:56.574Z,14.20
2023-03-30T12:26:30.226Z,13.60
2023-03-30T12:32:04.649Z,11.00
2023-03-30T12:34:37.022Z,15.80
2023-03-30T12:37:12.199Z,19.60
2023-03-30T12:39:45.663Z,12.50
2023-03-30T12:42:23.166Z,14.60
2023-03-30T12:45:04.278Z,16.60
2023-03-30T12:47:48.912Z,15.40
2023-03-30T12:50:31.657Z,18.50
2023-03-30T12:53:36.614Z,14.90
2023-03-30T12:56:14.926Z,13.30
2023-03-30T12:59:04.650Z,14.90
2023-03-30T13:01:56.880Z,16.40
2023-03-30T13:04:34.289Z,13.70
2023-03-30T13:07:08.817Z,11.80
2023-03-30T13:09:55.188Z,10.60
2023-03-30T13:12:42.302Z,9.80
2023-03-30T13:15:41.216Z,11.00
2023-03-30T13:18:40.088Z,13.80
2023-03-30T13:21:46.001Z,11.20
2023-03-30T13:24:32.013Z,11.50
2023-03-30T13:27:47.375Z,10.10
2023-03-30T13:30:18.876Z,11.80
2023-03-30T13:33:02.974Z,14.80
2023-03-30T13:35:39.156Z,11.10
2023-03-30T13:38:25.772Z,12.50
2023-03-30T13:41:10.660Z,13.70
2023-03-30T13:43:51.170Z,11.40
2023-03-30T13:46:30.367Z,12.90
2023-03-30T13:49:14.852Z,10.30
2023-03-30T13:51:49.919Z,13.70
2023-03-30T13:54:24.924Z,10.30
2023-03-30T13:56:59.759Z,12.80
2023-03-30T13:59:35.966Z,12.70
2023-03-30T14:02:07.915Z,23.60
2023-03-30T14:04:39.236Z,14.60
2023-03-30T14:07:16.604Z,13.00
2023-03-30T14:10:04.485Z,12.60
2023-03-30T14:12:40.063Z,12.00
2023-03-30T14:15:23.495Z,10.10
2023-03-30T14:17:58.019Z,15.50
2023-03-30T14:20:40.113Z,11.30
2023-03-30T14:23:17.983Z,12.20
2023-03-30T14:25:48.653Z,12.30
2023-03-30T14:28:20.887Z,12.10
2023-03-30T14:30:53.689Z,12.50
2023-03-30T14:33:25.645Z,25.10
2023-03-30T14:35:59.019Z,13.30
2023-03-30T14:38:50.178Z,13.00
2023-03-30T14:41:23.412Z,10.30
2023-03-30T14:43:56.943Z,15.50
2023-03-30T14:46:32.888Z,15.90
2023-03-30T14:49:04.113Z,15.50
2023-03-30T14:51:40.955Z,16.30
2023-03-30T14:54:17.083Z,13.40
2023-03-30T14:56:51.766Z,13.90
2023-03-30T14:59:23.043Z,11.20
2023-03-30T15:01:55.317Z,19.90
2023-03-30T15:04:32.235Z,13.50
2023-03-30T15:07:03.067Z,13.50
2023-03-30T15:09:38.786Z,15.80
2023-03-30T15:12:15.787Z,15.10
2023-03-30T15:14:49.199Z,18.40
2023-03-30T15:17:23.182Z,14.20
2023-03-30T15:19:55.912Z,13.70
2023-03-30T15:22:29.476Z,11.00
2023-03-30T15:25:04.192Z,15.40
2023-03-30T15:27:38.144Z,14.60
2023-03-30T15:30:27.805Z,22.80
2023-03-30T15:32:59.229Z,19.10
2023-03-30T15:35:31.837Z,17.10
2023-03-30T15:38:06.188Z,18.20
2023-03-30T15:40:39.837Z,12.80
2023-03-30T15:43:22.975Z,16.50
2023-03-30T15:45:56.160Z,13.40
2023-03-30T15:48:31.163Z,13.10
2023-03-30T15:51:08.058Z,13.30
2023-03-30T15:53:44.237Z,11.90
2023-03-30T15:56:21.415Z,13.40
2023-03-30T15:59:02.793Z,16.90
2023-03-30T16:01:47.869Z,15.70
2023-03-30T16:04:21.061Z,9.50
2023-03-30T16:06:54.869Z,12.10
2023-03-30T16:09:25.666Z,15.70
2023-03-30T16:11:58.245Z,13.80
2023-03-30T16:14:31.236Z,9.40
2023-03-30T16:17:01.954Z,14.10
2023-03-30T16:19:32.730Z,12.60
2023-03-30T16:22:03.547Z,13.40
2023-03-30T16:24:34.338Z,13.70
2023-03-30T16:27:06.304Z,14.00
2023-03-30T16:29:37.021Z,15.20
2023-03-30T16:32:08.083Z,12.80
2023-03-30T16:34:41.702Z,12.90
2023-03-30T16:37:15.289Z,14.00
2023-03-30T16:39:46.981Z,16.30
2023-03-30T16:42:17.716Z,13.70
2023-03-30T16:44:48.398Z,15.40
2023-03-30T16:47:19.179Z,12.50
2023-03-30T16:52:19.154Z,14.30
2023-03-30T16:54:49.931Z,13.60
2023-03-30T16:57:20.612Z,15.80
2023-03-30T17:02:21.030Z,10.80
2023-03-30T17:04:52.047Z,25.30
2023-03-30T17:09:52.704Z,8.30
2023-03-30T17:12:23.484Z,5.70
2023-03-30T17:14:54.170Z,3.10
2023-03-30T17:17:24.882Z,4.40
2023-03-30T17:19:55.965Z,4.30
2023-03-30T17:22:26.692Z,7.50
2023-03-30T17:24:57.395Z,7.40
2023-03-30T17:27:28.202Z,7.30
2023-03-30T17:29:58.945Z,3.80
2023-03-30T17:32:29.844Z,4.20
2023-03-30T17:37:29.667Z,8.50
2023-03-30T17:40:00.936Z,7.80
2023-03-30T17:42:31.648Z,7.70
2023-03-30T17:45:02.782Z,4.10
2023-03-30T17:47:36.118Z,7.10
2023-03-30T17:50:37.089Z,5.30
2023-03-30T17:53:07.933Z,4.40
2023-03-30T17:55:39.639Z,6.30
2023-03-30T17:58:16.520Z,4.60
2023-03-30T18:00:48.751Z,6.70
2023-03-30T18:03:21.659Z,4.00
2023-03-30T18:05:52.767Z,6.80
2023-03-30T18:08:24.246Z,9.80
2023-03-30T18:10:56.272Z,10.10
2023-03-30T18:13:28.581Z,16.40
2023-03-30T18:16:01.020Z,15.10
2023-03-30T18:18:32.657Z,9.60
2023-03-30T18:21:05.463Z,8.90
2023-03-30T18:23:36.361Z,9.00
2023-03-30T18:26:11.006Z,8.40
2023-03-30T18:28:53.190Z,9.20
2023-03-30T18:33:54.357Z,8.20
2023-03-30T18:36:28.406Z,9.90
2023-03-30T18:39:03.066Z,8.20
2023-03-30T18:41:33.955Z,12.20
2023-03-30T18:44:05.047Z,7.80
2023-03-30T18:46:36.429Z,11.30
2023-03-30T18:49:09.653Z,8.70
2023-03-30T18:51:40.678Z,7.70
2023-03-30T18:54:18.942Z,8.30
2023-03-30T18:56:49.732Z,9.50
2023-03-30T19:01:50.145Z,9.30
2023-03-30T19:04:20.867Z,15.40
2023-03-30T19:09:29.815Z,10.40
2023-03-30T19:12:11.735Z,9.40
2023-03-30T19:14:42.433Z,12.10
2023-03-30T19:17:13.142Z,14.80
2023-03-30T19:19:46.675Z,11.00
2023-03-30T19:22:18.408Z,13.70
2023-03-30T19:24:49.388Z,10.30
2023-03-30T19:27:20.067Z,8.80
2023-03-30T19:29:50.810Z,10.20
2023-03-30T19:32:21.501Z,11.50
2023-03-30T19:34:52.472Z,9.60
2023-03-30T19:39:52.766Z,9.80
2023-03-30T19:42:27.339Z,9.80
2023-03-30T19:44:58.019Z,14.70
2023-03-30T19:47:29.261Z,18.50
2023-03-30T19:50:00.606Z,17.20
2023-03-30T19:52:31.461Z,17.60
2023-03-30T19:55:03.520Z,22.40
2023-03-30T19:57:34.388Z,21.30
2023-03-30T20:00:08.394Z,28.60
2023-03-30T20:02:39.119Z,26.30
2023-03-30T20:05:11.261Z,19.80
2023-03-30T20:07:44.928Z,18.30
2023-03-30T20:10:17.995Z,13.80
2023-03-30T20:12:49.179Z,14.10
2023-03-30T20:15:21.101Z,15.20
2023-03-30T20:17:51.816Z,13.60
2023-03-30T20:20:22.822Z,11.40
2023-03-30T20:25:26.275Z,11.40
2023-03-30T20:27:56.927Z,12.60
2023-03-30T20:30:27.609Z,14.50
2023-03-30T20:33:07.299Z,16.00
2023-03-30T20:35:39.584Z,17.20
2023-03-30T20:40:39.953Z,21.40
2023-03-30T20:43:10.724Z,26.50
2023-03-30T20:45:41.526Z,22.50
2023-03-30T20:48:12.572Z,17.60
2023-03-30T20:50:43.228Z,23.10
2023-03-30T20:53:13.998Z,30.70
2023-03-30T20:55:45.454Z,27.20
2023-03-30T20:58:16.139Z,20.50
2023-03-30T21:00:46.821Z,17.80
2023-03-30T21:03:17.460Z,17.90
2023-03-30T21:05:57.741Z,22.90
2023-03-30T21:08:28.737Z,19.70
2023-03-30T21:10:59.895Z,20.20
2023-03-30T21:13:33.311Z,14.20
2023-03-30T21:16:06.617Z,11.40
2023-03-30T21:18:40.713Z,13.00
2023-03-30T21:21:11.998Z,12.90
2023-03-30T21:23:42.777Z,10.00
2023-03-30T21:26:14.096Z,11.10
2023-03-30T21:28:44.858Z,10.50
2023-03-30T21:31:15.535Z,10.10
2023-03-30T21:34:00.534Z,11.50
2023-03-30T21:36:31.306Z,12.70
2023-03-30T21:39:02.008Z,10.60
2023-03-30T21:41:33.948Z,10.00
2023-03-30T21:44:04.877Z,12.30
2023-03-30T21:46:56.160Z,8.30
2023-03-30T21:49:26.986Z,8.80
2023-03-30T21:51:57.634Z,10.90
2023-03-30T21:54:28.329Z,9.40
2023-03-30T21:56:59.027Z,10.50
2023-03-30T21:59:29.805Z,13.90
2023-03-30T22:02:02.749Z,12.10
2023-03-30T22:04:33.514Z,7.70
2023-03-30T22:07:04.713Z,9.10
2023-03-30T22:09:35.514Z,9.30
2023-03-30T22:12:06.604Z,11.00
2023-03-30T22:14:37.559Z,10.00
2023-03-30T22:17:08.293Z,7.70
2023-03-30T22:19:39.782Z,7.80
2023-03-30T22:22:10.478Z,11.10
2023-03-30T22:24:42.646Z,8.50
2023-03-30T22:27:13.379Z,8.50
2023-03-30T22:29:44.164Z,9.00
2023-03-30T22:32:14.869Z,6.60
2023-03-30T22:34:45.547Z,8.70
2023-03-30T22:37:16.221Z,10.30
2023-03-30T22:39:47.791Z,9.80
2023-03-30T22:42:18.736Z,8.10
2023-03-30T22:44:49.523Z,7.10
2023-03-30T22:49:49.640Z,8.00
2023-03-30T22:52:20.910Z,6.80
2023-03-30T22:54:51.668Z,8.40
2023-03-30T22:57:22.351Z,8.40
2023-03-30T22:59:53.236Z,6.80
2023-03-30T23:02:24.058Z,8.70
2023-03-30T23:04:54.799Z,6.90
2023-03-30T23:07:25.618Z,9.80
2023-03-30T23:09:56.475Z,8.40
2023-03-30T23:12:27.153Z,9.30
2023-03-30T23:14:57.969Z,9.00
2023-03-30T23:17:28.904Z,8.20
2023-03-30T23:22:29.202Z,10.50
2023-03-30T23:27:29.101Z,6.90
2023-03-30T23:30:00.199Z,9.00
2023-03-30T23:35:00.346Z,8.80
2023-03-30T23:37:31.056Z,7.30
2023-03-30T23:40:02.292Z,8.30
2023-03-30T23:42:33.063Z,6.80
2023-03-30T23:45:03.984Z,8.20
2023-03-30T23:47:34.688Z,9.50
2023-03-30T23:50:14.979Z,8.10
2023-03-30T23:52:45.562Z,7.60
2023-03-30T23:55:16.401Z,8.60
2023-03-30T23:57:47.048Z,8.80
